Time;durP1;ratioP1;P1;durP2;ratioP2;P2;SDS_P1;SDS_P2;PMS_P1;PMS_P2;Temp;Humidity;BMP_temperature;BMP_pressure;BME280_temperature;BME280_humidity;BME280_pressure;Samples;Min_cycle;Max_cycle;Signal;HPM_P1;HPM_P2
2022/09/12 00:01:18;;;;;;;3.85;3.20;;;;;;;16.57;69.72;99615.56;4363808;32;34371;-74
2022/09/12 00:03:46;;;;;;;4.65;3.40;;;;;;;16.46;70.10;99620.34;4333885;33;34110;-80
2022/09/12 00:06:18;;;;;;;4.37;3.55;;;;;;;15.95;71.74;99618.91;4333924;33;34377;-82
2022/09/12 00:09:02;;;;;;;4.45;2.92;;;;;;;15.74;73.31;99618.31;4333978;33;33887;-72
2022/09/12 00:11:30;;;;;;;6.35;2.92;;;;;;;16.51;69.78;99613.97;4354797;32;33855;-73
2022/09/12 00:13:59;;;;;;;4.35;3.05;;;;;;;16.60;69.60;99613.03;4363253;32;34288;-74
2022/09/12 00:16:28;;;;;;;3.80;3.00;;;;;;;15.43;73.94;99603.19;4350251;32;33741;-73
2022/09/12 00:18:56;;;;;;;4.12;3.33;;;;;;;16.19;70.99;99608.00;4363526;32;34764;-82
2022/09/12 00:21:24;;;;;;;4.30;3.40;;;;;;;15.88;72.38;99606.69;4363055;32;34056;-82
2022/09/12 00:23:51;;;;;;;3.65;3.22;;;;;;;15.97;71.97;99613.97;4361876;32;33808;-81
2022/09/12 00:26:20;;;;;;;5.18;3.37;;;;;;;16.48;69.60;99615.38;4348265;33;34292;-72
2022/09/12 00:28:49;;;;;;;4.32;3.30;;;;;;;15.30;74.20;99619.13;4348220;33;34349;-73
2022/09/12 00:31:20;;;;;;;5.47;3.33;;;;;;;15.73;72.87;99626.78;4335300;33;34278;-74
2022/09/12 00:33:47;;;;;;;4.95;3.62;;;;;;;15.90;72.23;99623.62;4348110;33;33979;-73
2022/09/12 00:36:20;;;;;;;5.20;3.80;;;;;;;15.99;71.35;99627.37;4348068;33;33367;-81
2022/09/12 00:38:48;;;;;;;4.60;3.65;;;;;;;15.05;75.63;99613.81;4348529;33;34045;-72
2022/09/12 00:41:19;;;;;;;5.37;3.62;;;;;;;14.79;77.41;99613.94;4347143;33;34362;-72
2022/09/12 00:43:49;;;;;;;4.57;3.30;;;;;;;15.11;76.14;99613.50;4346709;32;33789;-73
2022/09/12 00:46:35;;;;;;;4.55;3.70;;;;;;;15.90;72.28;99615.44;4347724;32;33754;-73
2022/09/12 00:49:11;;;;;;;5.20;4.20;;;;;;;15.04;76.44;99618.47;4348358;33;34746;-73
2022/09/12 00:51:43;;;;;;;5.62;3.78;;;;;;;14.81;77.55;99614.47;4346660;33;34181;-73
2022/09/12 00:54:14;;;;;;;6.50;3.90;;;;;;;14.87;77.74;99624.28;4348624;33;33936;-73
2022/09/12 00:56:42;;;;;;;4.50;3.50;;;;;;;14.92;77.53;99615.22;4348080;33;34084;-81
2022/09/12 00:59:17;;;;;;;5.32;3.60;;;;;;;15.55;74.51;99623.59;4347047;33;34020;-73
2022/09/12 01:01:47;;;;;;;4.68;4.00;;;;;;;15.91;72.74;99622.53;4348142;32;34115;-82
2022/09/12 01:04:17;;;;;;;5.15;4.00;;;;;;;15.53;74.10;99628.53;4348045;33;34834;-73
2022/09/12 01:06:45;;;;;;;4.95;3.65;;;;;;;15.55;74.38;99625.50;4334607;33;34237;-74
2022/09/12 01:09:17;;;;;;;5.90;3.85;;;;;;;15.50;74.72;99625.56;4334563;33;34571;-74
2022/09/12 01:11:45;;;;;;;6.10;3.92;;;;;;;15.56;74.29;99624.41;4352056;32;35170;-78
2022/09/12 01:14:14;;;;;;;4.75;4.10;;;;;;;15.05;76.94;99622.00;4348255;33;33988;-73
2022/09/12 01:16:43;;;;;;;4.72;3.70;;;;;;;15.07;77.33;99622.53;4346470;33;33642;-81
2022/09/12 01:19:30;;;;;;;5.28;4.10;;;;;;;15.90;73.09;99609.97;4346943;33;33800;-81
2022/09/12 01:22:27;;;;;;;5.18;3.80;;;;;;;16.62;70.02;99619.03;4348082;33;34360;-81
2022/09/12 01:25:23;;;;;;;5.07;3.97;;;;;;;16.76;69.48;99618.31;4347220;33;33989;-74
2022/09/12 01:28:21;;;;;;;4.72;3.80;;;;;;;16.36;70.76;99624.00;4347615;33;33526;-72
2022/09/12 01:31:10;;;;;;;6.65;4.30;;;;;;;16.08;72.41;99622.91;4346557;33;34715;-78
2022/09/12 01:33:46;;;;;;;5.90;4.12;;;;;;;16.21;72.04;99624.16;4348031;33;35100;-74
2022/09/12 01:36:40;;;;;;;5.40;4.35;;;;;;;16.70;70.13;99625.81;4347709;33;34620;-74
2022/09/12 01:39:15;;;;;;;7.18;4.55;;;;;;;16.26;71.75;99620.53;4346727;33;33149;-80
2022/09/12 01:41:52;;;;;;;5.40;4.30;;;;;;;15.76;73.85;99621.53;4348068;33;33994;-73
2022/09/12 01:45:02;;;;;;;6.82;4.65;;;;;;;16.22;71.98;99624.97;4346836;33;35091;-71
2022/09/12 01:47:37;;;;;;;5.80;4.68;;;;;;;15.91;73.59;99622.53;4347456;33;34051;-73
2022/09/12 01:50:09;;;;;;;6.30;4.30;;;;;;;15.93;73.39;99623.84;4346686;33;34395;-74
2022/09/12 01:52:43;;;;;;;5.90;4.55;;;;;;;16.02;72.92;99623.25;4346850;33;34011;-71
2022/09/12 01:55:16;;;;;;;5.30;4.50;;;;;;;15.86;73.93;99614.38;4347085;33;34329;-73
2022/09/12 01:57:49;;;;;;;6.00;4.90;;;;;;;16.00;72.91;99623.53;4347670;33;34946;-81
2022/09/12 02:00:16;;;;;;;7.82;4.97;;;;;;;15.89;72.86;99627.47;4346526;33;33668;-81
2022/09/12 02:02:50;;;;;;;7.37;5.10;;;;;;;15.89;73.40;99622.78;4347861;33;34774;-79
2022/09/12 02:05:38;;;;;;;6.65;5.35;;;;;;;15.65;74.41;99630.09;4346554;33;34185;-73
2022/09/12 02:08:08;;;;;;;7.07;5.62;;;;;;;16.11;72.81;99636.03;4346525;33;33981;-73
2022/09/12 02:10:43;;;;;;;7.30;5.85;;;;;;;15.64;74.38;99632.03;4346611;32;33366;-79
2022/09/12 02:13:37;;;;;;;7.15;5.75;;;;;;;16.05;73.19;99631.69;4349113;32;34082;-75
2022/09/12 02:16:09;;;;;;;7.28;5.40;;;;;;;15.95;73.75;99635.34;4348758;32;34179;-74
2022/09/12 02:18:40;;;;;;;7.40;5.87;;;;;;;15.83;74.08;99639.53;4362243;32;34697;-83
2022/09/12 02:21:07;;;;;;;9.82;5.78;;;;;;;15.70;74.84;99638.25;4362180;32;33234;-74
2022/09/12 02:23:38;;;;;;;7.47;5.90;;;;;;;15.79;74.44;99636.59;4362159;32;33921;-81
2022/09/12 02:26:12;;;;;;;7.78;6.07;;;;;;;15.95;73.65;99640.00;4348287;32;34959;-74
2022/09/12 02:28:41;;;;;;;7.15;5.97;;;;;;;16.13;73.38;99636.56;4348316;32;33794;-73
2022/09/12 02:31:19;;;;;;;8.57;6.47;;;;;;;16.04;73.33;99621.03;4362239;32;33151;-73
2022/09/12 02:34:00;;;;;;;7.53;6.25;;;;;;;15.47;76.39;99620.66;4348523;32;33805;-73
2022/09/12 02:36:39;;;;;;;7.68;6.05;;;;;;;15.35;76.67;99623.72;4362091;32;34299;-73
2022/09/12 02:39:07;;;;;;;8.18;5.72;;;;;;;15.91;74.25;99631.53;4362026;32;33909;-79
2022/09/12 02:41:34;;;;;;;7.35;5.45;;;;;;;15.95;73.52;99626.31;4362092;32;33422;-71
2022/09/12 02:44:03;;;;;;;8.60;5.45;;;;;;;15.74;74.46;99628.41;4348271;32;34815;-73
2022/09/12 02:47:04;;;;;;;7.05;5.87;;;;;;;15.32;75.82;99630.59;4361934;32;35242;-80
2022/09/12 02:49:31;;;;;;;6.80;5.62;;;;;;;15.22;76.48;99636.09;4335727;32;34171;-72
2022/09/12 02:52:00;;;;;;;7.93;6.12;;;;;;;15.74;74.45;99631.97;4364308;32;33630;-81
2022/09/12 02:54:28;;;;;;;8.75;6.22;;;;;;;14.92;77.95;99626.16;4350388;32;34766;-72
2022/09/12 02:56:55;;;;;;;9.00;6.03;;;;;;;14.48;80.65;99637.78;4350354;32;34200;-73
2022/09/12 02:59:24;;;;;;;7.25;6.15;;;;;;;14.26;82.31;99629.91;4350491;32;34005;-73
2022/09/12 03:02:09;;;;;;;7.57;6.22;;;;;;;14.56;81.15;99637.25;4350692;32;33086;-73
2022/09/12 03:05:07;;;;;;;7.35;6.12;;;;;;;14.46;82.14;99643.50;4350534;32;34101;-72
2022/09/12 03:07:47;;;;;;;6.57;5.55;;;;;;;15.57;75.97;99640.56;4350191;32;34909;-79
2022/09/12 03:10:21;;;;;;;9.48;5.87;;;;;;;15.36;76.12;99639.06;4360829;32;34103;-71
2022/09/12 03:13:08;;;;;;;8.25;6.18;;;;;;;16.14;72.17;99635.44;4342184;32;33598;-78
2022/09/12 03:15:54;;;;;;;7.75;5.43;;;;;;;15.73;73.62;99630.31;4353856;32;34261;-79
2022/09/12 03:18:33;;;;;;;8.30;6.15;;;;;;;15.65;73.25;99630.91;4353496;32;33888;-71
2022/09/12 03:21:13;;;;;;;7.65;6.07;;;;;;;15.59;73.75;99630.16;4344377;32;33726;-72
2022/09/12 03:24:03;;;;;;;8.85;5.82;;;;;;;15.91;72.23;99633.47;4353937;32;33968;-73
2022/09/12 03:26:53;;;;;;;8.52;6.22;;;;;;;15.43;73.19;99620.41;4360385;32;34546;-76
2022/09/12 03:29:21;;;;;;;8.55;6.60;;;;;;;15.37;74.21;99627.81;4344205;32;34683;-74
2022/09/12 03:31:51;;;;;;;8.60;6.35;;;;;;;15.59;72.82;99630.16;4346595;32;34133;-78
2022/09/12 03:34:20;;;;;;;7.68;6.12;;;;;;;15.27;74.64;99632.53;4355101;32;33520;-78
2022/09/12 03:36:48;;;;;;;10.23;6.95;;;;;;;15.07;75.03;99637.00;4355748;32;34624;-77
2022/09/12 03:39:16;;;;;;;9.35;6.18;;;;;;;15.13;74.83;99630.41;4356725;32;33993;-73
2022/09/12 03:41:44;;;;;;;9.07;6.00;;;;;;;15.21;74.66;99642.69;4363988;32;34184;-73
2022/09/12 03:44:11;;;;;;;9.35;6.43;;;;;;;15.31;74.27;99639.91;4363076;32;34527;-73
2022/09/12 03:46:39;;;;;;;9.52;6.22;;;;;;;15.75;72.28;99644.53;4349271;32;34604;-74
2022/09/12 03:49:06;;;;;;;10.00;6.90;;;;;;;15.39;73.63;99638.47;4363573;32;34984;-76
2022/09/12 03:51:34;;;;;;;8.93;6.30;;;;;;;15.67;72.33;99631.44;4363417;32;33877;-75
2022/09/12 03:54:01;;;;;;;8.43;6.80;;;;;;;15.30;73.95;99629.25;4363488;32;33029;-70
2022/09/12 03:56:29;;;;;;;9.27;6.03;;;;;;;15.00;74.51;99624.78;4363605;32;34105;-71
2022/09/12 03:58:56;;;;;;;8.27;6.50;;;;;;;15.73;71.64;99630.31;4362584;32;34321;-74
2022/09/12 04:01:24;;;;;;;7.72;5.62;;;;;;;15.52;72.38;99634.28;4363158;32;33808;-75
2022/09/12 04:03:51;;;;;;;9.43;6.65;;;;;;;15.74;71.14;99634.72;4363360;32;33484;-70
2022/09/12 04:06:21;;;;;;;9.90;6.40;;;;;;;15.91;70.43;99641.69;4363205;32;34042;-75
2022/09/12 04:08:52;;;;;;;8.35;6.05;;;;;;;15.77;71.43;99642.34;4363237;32;34335;-80
2022/09/12 04:11:21;;;;;;;8.85;6.25;;;;;;;15.94;70.55;99641.94;4363313;32;34053;-73
2022/09/12 04:13:48;;;;;;;9.70;6.05;;;;;;;15.60;71.30;99639.16;4363213;32;34361;-72
2022/09/12 04:16:17;;;;;;;10.13;6.47;;;;;;;15.36;72.36;99637.13;4350042;32;34341;-79
2022/09/12 04:18:45;;;;;;;9.27;6.45;;;;;;;15.62;71.70;99647.09;4349922;32;35050;-79
2022/09/12 04:21:18;;;;;;;9.35;6.60;;;;;;;15.59;71.67;99643.81;4356836;32;33980;-71
2022/09/12 04:23:45;;;;;;;9.02;6.80;;;;;;;15.64;71.30;99648.44;4362183;32;34339;-72
2022/09/12 04:26:13;;;;;;;10.55;7.20;;;;;;;15.63;71.29;99643.22;4362168;32;33930;-74
2022/09/12 04:28:40;;;;;;;8.40;6.53;;;;;;;16.04;69.79;99645.66;4348475;32;34124;-73
2022/09/12 04:31:14;;;;;;;9.45;6.75;;;;;;;15.67;70.68;99641.56;4361786;32;34267;-73
2022/09/12 04:33:41;;;;;;;9.18;6.78;;;;;;;15.57;71.05;99642.44;4361991;32;34479;-75
2022/09/12 04:36:13;;;;;;;9.02;7.07;;;;;;;15.78;70.38;99646.69;4348401;32;33904;-73
2022/09/12 04:38:42;;;;;;;9.95;6.68;;;;;;;15.66;71.08;99642.66;4362186;32;34915;-74
2022/09/12 04:41:15;;;;;;;11.12;7.00;;;;;;;15.73;71.05;99640.47;4348488;32;34613;-72
2022/09/12 04:43:45;;;;;;;10.55;7.62;;;;;;;15.48;71.75;99652.34;4362332;32;33579;-73
2022/09/12 04:46:15;;;;;;;8.48;6.50;;;;;;;15.69;70.63;99642.09;4348168;32;34008;-71
2022/09/12 04:48:43;;;;;;;8.80;6.90;;;;;;;15.86;70.44;99641.72;4361547;32;35102;-72
2022/09/12 04:51:21;;;;;;;9.35;7.18;;;;;;;15.55;71.65;99647.38;4361611;32;34767;-73
2022/09/12 04:53:51;;;;;;;10.82;7.35;;;;;;;15.71;71.07;99648.09;4348463;32;34327;-73
2022/09/12 04:56:19;;;;;;;9.73;6.32;;;;;;;15.69;70.97;99650.31;4361787;32;33939;-73
2022/09/12 04:58:47;;;;;;;9.52;7.12;;;;;;;15.79;70.50;99655.75;4361790;32;34931;-81
2022/09/12 05:01:17;;;;;;;9.57;7.53;;;;;;;16.02;69.73;99658.81;4348406;32;34625;-81
2022/09/12 05:03:45;;;;;;;10.40;7.22;;;;;;;15.99;70.19;99654.75;4361872;32;33488;-80
2022/09/12 05:06:16;;;;;;;10.52;7.03;;;;;;;16.15;69.27;99669.91;4359676;32;33743;-74
2022/09/12 05:08:44;;;;;;;9.38;7.18;;;;;;;16.24;69.18;99672.87;4361242;32;33769;-76
2022/09/12 05:11:18;;;;;;;10.70;7.68;;;;;;;15.93;70.32;99669.56;4361980;32;34080;-77
2022/09/12 05:13:51;;;;;;;10.20;7.95;;;;;;;16.35;68.78;99673.59;4361689;32;33641;-72
2022/09/12 05:16:19;;;;;;;9.85;7.62;;;;;;;16.06;70.50;99679.84;4361810;32;33846;-71
2022/09/12 05:18:49;;;;;;;10.27;7.72;;;;;;;16.36;69.19;99669.72;4361802;32;33967;-69
2022/09/12 05:21:20;;;;;;;9.20;7.45;;;;;;;16.61;68.62;99676.88;4361057;32;35571;-70
2022/09/12 05:23:50;;;;;;;11.25;7.15;;;;;;;17.03;66.54;99686.25;4348333;32;33690;-72
2022/09/12 05:26:19;;;;;;;10.68;7.72;;;;;;;16.91;67.35;99689.44;4361600;32;33816;-71
2022/09/12 05:28:47;;;;;;;10.43;7.35;;;;;;;17.34;65.40;99694.91;4361452;32;34139;-72
2022/09/12 05:31:26;;;;;;;9.70;7.45;;;;;;;17.22;66.15;99695.34;4361695;32;33978;-71
2022/09/12 05:33:54;;;;;;;9.55;7.25;;;;;;;17.54;64.71;99701.25;4361564;32;33369;-71
2022/09/12 05:36:28;;;;;;;9.38;7.07;;;;;;;17.78;64.43;99710.19;4361150;32;34645;-70
2022/09/12 05:38:56;;;;;;;9.35;7.25;;;;;;;16.75;68.63;99690.69;4361629;32;34819;-72
2022/09/12 05:41:26;;;;;;;10.35;7.78;;;;;;;17.20;67.20;99708.53;4361595;32;33725;-73
2022/09/12 05:43:58;;;;;;;10.32;7.62;;;;;;;17.11;67.31;99702.06;4361484;32;34389;-73
2022/09/12 05:46:27;;;;;;;11.98;7.62;;;;;;;17.56;65.33;99699.00;4361370;32;33486;-70
2022/09/12 05:48:56;;;;;;;9.27;6.78;;;;;;;18.02;63.92;99703.81;4348123;32;34212;-72
2022/09/12 05:51:25;;;;;;;8.93;6.68;;;;;;;17.83;64.79;99710.13;4346869;33;34137;-72
2022/09/12 05:53:57;;;;;;;8.93;6.55;;;;;;;18.22;63.16;99713.63;4342372;33;33886;-77
2022/09/12 05:56:27;;;;;;;9.25;6.72;;;;;;;18.80;60.49;99709.59;4332883;33;34193;-75
2022/09/12 05:59:02;;;;;;;10.73;7.65;;;;;;;18.20;63.43;99708.44;4332922;33;34199;-75
2022/09/12 06:01:34;;;;;;;8.65;6.40;;;;;;;18.11;63.10;99712.19;4345692;33;33838;-72
2022/09/12 06:04:03;;;;;;;10.07;6.65;;;;;;;18.44;61.86;99711.06;4333034;33;33787;-75
2022/09/12 06:06:35;;;;;;;10.45;7.15;;;;;;;18.42;63.45;99713.31;4347352;33;33839;-75
2022/09/12 06:09:04;;;;;;;9.90;6.85;;;;;;;19.10;59.96;99710.94;4347223;33;34278;-75
2022/09/12 06:11:33;;;;;;;10.25;6.93;;;;;;;19.17;60.49;99708.56;4353770;32;34217;-75
2022/09/12 06:14:00;;;;;;;9.18;6.45;;;;;;;19.56;58.19;99709.94;4362088;32;34445;-76
2022/09/12 06:16:30;;;;;;;12.77;7.20;;;;;;;19.18;60.31;99712.13;4362062;32;34159;-81
2022/09/12 06:19:00;;;;;;;8.73;6.45;;;;;;;18.75;62.70;99709.69;4362119;32;35098;-81
2022/09/12 06:21:30;;;;;;;9.45;6.70;;;;;;;18.77;62.08;99718.44;4362948;32;34794;-82
2022/09/12 06:23:58;;;;;;;10.60;7.32;;;;;;;19.13;60.66;99715.81;4358632;32;33299;-72
2022/09/12 06:26:28;;;;;;;9.73;6.37;;;;;;;18.87;61.33;99718.25;4351669;32;34375;-78
2022/09/12 06:28:57;;;;;;;11.73;7.00;;;;;;;19.67;58.91;99722.38;4368296;32;34280;-73
2022/09/12 06:31:28;;;;;;;9.05;6.90;;;;;;;19.04;61.57;99715.72;4348505;32;34096;-75
2022/09/12 06:33:58;;;;;;;8.82;6.28;;;;;;;18.51;62.34;99710.69;4351189;32;33607;-83
2022/09/12 06:36:28;;;;;;;8.75;6.25;;;;;;;18.67;61.65;99718.63;4363502;32;33775;-75
2022/09/12 06:38:58;;;;;;;8.00;6.53;;;;;;;19.53;58.60;99720.75;4351715;32;35053;-69
2022/09/12 06:41:26;;;;;;;8.90;6.40;;;;;;;18.67;62.45;99713.13;4357605;32;34047;-69
2022/09/12 06:43:53;;;;;;;11.55;6.10;;;;;;;19.59;58.97;99717.59;4361063;32;33394;-72
2022/09/12 06:46:21;;;;;;;9.70;5.82;;;;;;;19.16;59.82;99719.91;4349095;32;33865;-75
2022/09/12 06:48:49;;;;;;;9.18;5.95;;;;;;;19.00;60.26;99713.88;4348806;32;33729;-70
2022/09/12 06:51:18;;;;;;;8.68;6.07;;;;;;;18.60;61.47;99719.03;4360648;32;34069;-74
2022/09/12 06:53:47;;;;;;;8.75;6.15;;;;;;;18.76;62.85;99712.09;4360863;32;33233;-75
2022/09/12 06:56:18;;;;;;;8.95;6.75;;;;;;;19.50;59.06;99716.66;4363179;32;33729;-72
2022/09/12 06:58:46;;;;;;;9.48;6.40;;;;;;;19.05;60.57;99713.81;4363650;32;34348;-74
2022/09/12 07:01:15;;;;;;;8.85;5.87;;;;;;;18.99;61.45;99707.56;4363821;32;34608;-75
2022/09/12 07:03:50;;;;;;;9.60;6.37;;;;;;;19.04;61.48;99704.72;4364468;32;33772;-69
2022/09/12 07:06:19;;;;;;;9.15;6.47;;;;;;;19.13;60.91;99707.56;4359593;32;33749;-69
2022/09/12 07:08:47;;;;;;;7.90;5.68;;;;;;;19.37;61.06;99706.50;4362341;32;34736;-68
2022/09/12 07:11:15;;;;;;;8.20;6.00;;;;;;;19.91;58.59;99707.50;4365696;32;34034;-68
2022/09/12 07:13:46;;;;;;;8.77;6.43;;;;;;;19.58;59.02;99712.37;4361449;32;34345;-69
2022/09/12 07:16:15;;;;;;;7.65;5.40;;;;;;;19.75;60.09;99709.00;4360630;32;33537;-70
2022/09/12 07:18:50;;;;;;;8.10;5.03;;;;;;;20.10;58.00;99717.53;4357293;32;33951;-69
2022/09/12 07:21:19;;;;;;;7.37;4.95;;;;;;;19.99;57.20;99717.78;4359420;32;34651;-69
2022/09/12 07:23:46;;;;;;;7.35;5.37;;;;;;;19.56;58.30;99728.38;4358308;32;33368;-71
2022/09/12 07:26:15;;;;;;;8.70;5.30;;;;;;;18.43;60.68;99717.66;4351387;32;34805;-69
2022/09/12 07:28:43;;;;;;;7.10;5.05;;;;;;;18.51;61.12;99732.66;4357590;32;34867;-70
2022/09/12 07:31:15;;;;;;;7.70;5.00;;;;;;;18.53;61.79;99727.66;4359189;32;34643;-68
2022/09/12 07:33:43;;;;;;;8.40;4.93;;;;;;;19.16;59.97;99719.91;4354545;32;32710;-67
2022/09/12 07:36:13;;;;;;;6.05;4.35;;;;;;;19.62;58.43;99729.91;4357234;32;33825;-69
2022/09/12 07:38:41;;;;;;;6.62;4.40;;;;;;;19.95;57.45;99730.53;4357780;32;34365;-79
2022/09/12 07:41:19;;;;;;;5.65;4.05;;;;;;;19.24;57.98;99732.91;4361084;32;32553;-68
2022/09/12 07:43:47;;;;;;;6.25;4.62;;;;;;;19.98;56.51;99737.38;4361390;32;34030;-69
2022/09/12 07:46:15;;;;;;;7.60;5.00;;;;;;;19.45;57.78;99738.81;4357822;32;34015;-70
2022/09/12 07:48:44;;;;;;;7.12;4.07;;;;;;;18.99;58.28;99737.81;4361065;32;33985;-71
2022/09/12 07:51:11;;;;;;;6.00;4.05;;;;;;;19.47;57.31;99733.81;4357583;32;34270;-68
2022/09/12 07:53:40;;;;;;;5.93;4.07;;;;;;;20.37;56.39;99735.88;4361367;32;33837;-69
2022/09/12 07:56:12;;;;;;;5.43;4.00;;;;;;;20.31;55.74;99735.19;4347409;32;33963;-68
2022/09/12 07:58:40;;;;;;;9.27;4.25;;;;;;;20.12;56.14;99737.31;4350629;32;34280;-69
2022/09/12 08:01:14;;;;;;;6.87;4.43;;;;;;;19.69;56.07;99733.03;4355662;32;33550;-69
2022/09/12 08:03:42;;;;;;;6.50;4.10;;;;;;;19.60;56.53;99735.72;4361363;32;33327;-69
2022/09/12 08:06:16;;;;;;;5.32;3.78;;;;;;;19.79;56.70;99724.59;4348634;32;34629;-68
2022/09/12 08:08:43;;;;;;;5.32;3.45;;;;;;;20.43;55.57;99729.09;4360887;32;34978;-69
2022/09/12 08:11:13;;;;;;;3.87;2.97;;;;;;;20.61;53.72;99730.84;4357047;32;33838;-70
2022/09/12 08:13:41;;;;;;;4.47;3.30;;;;;;;20.00;55.95;99732.34;4351614;32;33027;-69
2022/09/12 08:16:17;;;;;;;6.70;3.28;;;;;;;20.25;55.55;99725.41;4346744;32;33523;-67
2022/09/12 08:18:44;;;;;;;5.30;3.37;;;;;;;20.57;55.60;99724.34;4346054;32;34233;-67
2022/09/12 08:21:15;;;;;;;4.47;3.20;;;;;;;21.04;54.09;99733.00;4347139;32;33530;-68
2022/09/12 08:23:43;;;;;;;5.28;3.15;;;;;;;20.71;53.04;99731.69;4348017;32;33207;-68
2022/09/12 08:26:11;;;;;;;5.07;3.47;;;;;;;20.80;52.65;99727.03;4345481;33;34057;-68
2022/09/12 08:28:42;;;;;;;5.30;3.45;;;;;;;21.04;52.49;99733.00;4339540;32;34172;-69
2022/09/12 08:31:11;;;;;;;5.30;3.60;;;;;;;20.48;54.18;99732.53;4346254;32;34553;-68
2022/09/12 08:33:39;;;;;;;5.30;3.70;;;;;;;21.05;52.81;99734.59;4346483;33;33486;-68
2022/09/12 08:36:06;;;;;;;5.03;3.40;;;;;;;21.03;53.71;99739.63;4343696;32;34906;-68
2022/09/12 08:38:34;;;;;;;6.00;3.87;;;;;;;21.67;52.19;99733.66;4353106;32;34215;-69
2022/09/12 08:41:10;;;;;;;6.47;3.15;;;;;;;21.26;55.25;99742.31;4339072;33;34282;-69
2022/09/12 08:43:47;;;;;;;5.28;3.50;;;;;;;21.54;52.81;99736.56;4326755;33;33654;-69
2022/09/12 08:46:41;;;;;;;5.80;3.60;;;;;;;21.11;53.26;99735.28;4345301;33;33903;-73
2022/09/12 08:49:12;;;;;;;4.18;3.05;;;;;;;20.38;53.84;99726.47;4341128;33;34148;-74
2022/09/12 08:51:40;;;;;;;4.60;3.35;;;;;;;20.65;51.13;99725.53;4339548;33;34744;-75
2022/09/12 08:54:21;;;;;;;3.87;2.60;;;;;;;20.78;52.38;99727.37;4334087;33;34027;-72
2022/09/12 08:56:48;;;;;;;4.00;3.05;;;;;;;20.91;51.41;99720.13;4345297;33;33870;-71
2022/09/12 08:59:16;;;;;;;4.15;2.90;;;;;;;21.18;52.14;99723.78;4334252;33;33955;-72
2022/09/12 09:01:44;;;;;;;8.45;4.07;;;;;;;21.29;51.66;99714.91;4349091;32;34010;-73
2022/09/12 09:04:17;;;;;;;3.47;2.70;;;;;;;21.52;50.16;99717.56;4346095;33;33303;-74
2022/09/12 09:06:50;;;;;;;4.55;2.90;;;;;;;21.57;49.95;99722.91;4350920;32;33947;-74
2022/09/12 09:09:41;;;;;;;4.32;2.97;;;;;;;22.01;47.51;99721.00;4338962;33;34354;-79
2022/09/12 09:12:33;;;;;;;5.25;2.87;;;;;;;21.35;49.52;99714.72;4350025;32;33982;-74
2022/09/12 09:15:39;;;;;;;3.65;2.78;;;;;;;21.24;50.74;99694.91;4337522;32;34446;-74
2022/09/12 09:18:15;;;;;;;3.90;2.70;;;;;;;21.67;49.60;99717.06;4338561;33;33942;-73
2022/09/12 09:20:55;;;;;;;3.45;2.30;;;;;;;22.17;47.86;99717.72;4334678;33;35107;-73
2022/09/12 09:23:26;;;;;;;3.70;2.80;;;;;;;22.31;46.45;99715.59;4342807;33;34589;-75
2022/09/12 09:26:00;;;;;;;3.22;2.67;;;;;;;21.92;48.97;99709.09;4340777;33;33738;-77
2022/09/12 09:28:50;;;;;;;3.28;2.70;;;;;;;21.63;47.50;99701.50;4336352;33;32561;-75
2022/09/12 09:31:21;;;;;;;3.78;2.40;;;;;;;21.60;46.50;99696.63;4327910;33;34318;-74
2022/09/12 09:33:50;;;;;;;3.17;2.22;;;;;;;22.47;46.19;99710.38;4353591;32;34073;-72
2022/09/12 09:36:44;;;;;;;3.70;2.65;;;;;;;22.01;46.29;99715.47;4359301;32;34276;-81
2022/09/12 09:39:27;;;;;;;3.42;2.33;;;;;;;22.02;47.61;99708.78;4337644;33;33859;-74
2022/09/12 09:42:16;;;;;;;3.25;2.33;;;;;;;22.43;45.27;99704.69;4337404;33;34835;-76
2022/09/12 09:44:47;;;;;;;3.53;2.50;;;;;;;22.35;47.46;99711.03;4343109;33;33953;-74
2022/09/12 09:47:16;;;;;;;3.87;2.67;;;;;;;22.21;48.03;99711.22;4343970;33;34180;-74
2022/09/12 09:49:44;;;;;;;3.75;2.50;;;;;;;22.61;45.38;99713.72;4341601;33;32084;-77
2022/09/12 09:52:14;;;;;;;3.65;2.72;;;;;;;21.90;46.64;99712.22;4344893;33;34981;-77
2022/09/12 09:54:56;;;;;;;4.15;2.70;;;;;;;21.62;47.00;99719.16;4331099;33;33934;-77
2022/09/12 09:57:33;;;;;;;3.53;2.28;;;;;;;21.75;48.42;99721.00;4338345;33;34440;-77
2022/09/12 10:00:26;;;;;;;2.90;2.37;;;;;;;22.27;45.90;99717.41;4344124;33;34067;-76
2022/09/12 10:03:23;;;;;;;3.45;2.60;;;;;;;21.68;47.76;99715.12;4338995;32;35018;-76
2022/09/12 10:05:57;;;;;;;3.53;2.70;;;;;;;21.63;47.61;99710.56;4335378;33;34496;-78
2022/09/12 10:08:26;;;;;;;3.35;2.78;;;;;;;20.89;48.21;99703.91;4342803;33;32853;-76
2022/09/12 10:11:21;;;;;;;3.20;2.62;;;;;;;20.69;50.06;99697.00;4338730;32;33706;-78
2022/09/12 10:13:49;;;;;;;4.37;2.78;;;;;;;20.83;51.04;99704.34;4356958;32;34036;-79
2022/09/12 10:16:51;;;;;;;4.37;2.50;;;;;;;21.50;49.72;99701.31;4360937;32;34103;-79
2022/09/12 10:19:23;;;;;;;3.87;2.30;;;;;;;22.20;47.83;99704.06;4353086;32;33157;-81
2022/09/12 10:21:52;;;;;;;4.78;2.62;;;;;;;21.83;47.00;99711.87;4353609;32;34066;-83
2022/09/12 10:24:22;;;;;;;2.67;2.17;;;;;;;21.10;47.84;99711.56;4358757;32;33973;-73
2022/09/12 10:26:53;;;;;;;3.47;2.90;;;;;;;21.58;49.01;99707.97;4360712;32;34076;-81
2022/09/12 10:29:30;;;;;;;4.22;2.72;;;;;;;20.89;48.67;99706.66;4337716;32;36568;-76
2022/09/12 10:32:01;;;;;;;4.68;2.60;;;;;;;20.89;48.99;99706.66;4338609;32;34165;-78
2022/09/12 10:34:32;;;;;;;3.50;2.78;;;;;;;20.86;51.10;99699.03;4344989;32;35178;-76
2022/09/12 10:37:05;;;;;;;3.95;2.55;;;;;;;21.62;49.27;99700.69;4340235;32;34711;-77
2022/09/12 10:39:34;;;;;;;3.80;2.50;;;;;;;22.02;48.23;99707.97;4347494;32;33962;-73
2022/09/12 10:42:03;;;;;;;5.72;2.70;;;;;;;22.03;48.10;99707.66;4356475;32;34121;-76
2022/09/12 10:44:33;;;;;;;7.82;3.03;;;;;;;22.25;46.75;99711.41;4360024;32;33776;-78
2022/09/12 10:47:20;;;;;;;4.10;2.90;;;;;;;22.24;47.72;99707.00;4347412;32;34083;-74
2022/09/12 10:49:49;;;;;;;3.33;2.62;;;;;;;22.14;48.41;99713.66;4359383;32;34229;-72
2022/09/12 10:52:24;;;;;;;4.20;2.80;;;;;;;21.66;49.92;99707.19;4359294;32;33815;-75
2022/09/12 10:54:51;;;;;;;5.22;4.20;;;;;;;22.25;48.74;99701.16;4341365;32;34294;-71
2022/09/12 10:57:19;;;;;;;3.95;2.70;;;;;;;22.28;46.97;99697.72;4345509;32;34035;-76
2022/09/12 11:00:14;;;;;;;4.80;3.30;;;;;;;22.13;47.92;99700.97;4364333;32;34201;-71
2022/09/12 11:02:48;;;;;;;5.05;3.22;;;;;;;21.93;48.78;99694.16;4339307;32;33683;-76
2022/09/12 11:05:27;;;;;;;3.60;2.90;;;;;;;21.60;50.16;99702.16;4351655;32;34130;-71
2022/09/12 11:08:13;;;;;;;4.60;2.75;;;;;;;21.78;48.93;99687.19;4337942;32;34786;-84
2022/09/12 11:11:01;;;;;;;;;;;;;;;21.79;48.98;99702.63;4337174;32;33604;-76
2022/09/12 11:13:55;;;;;;;5.22;3.05;;;;;;;21.75;49.26;99703.59;4347305;32;34310;-79
2022/09/12 11:16:41;;;;;;;4.20;2.90;;;;;;;21.94;49.54;99692.22;4355724;32;34193;-77
2022/09/12 11:19:26;;;;;;;4.30;3.00;;;;;;;21.55;50.76;99699.53;4361138;32;34431;-77
2022/09/12 11:22:11;;;;;;;4.50;3.00;;;;;;;21.87;50.02;99703.75;4355694;32;34350;-76
2022/09/12 11:25:07;;;;;;;4.37;2.80;;;;;;;21.62;49.63;99697.91;4351635;32;33690;-77
2022/09/12 11:28:03;;;;;;;4.72;2.90;;;;;;;21.24;50.31;99703.19;4360762;32;34293;-73
2022/09/12 11:30:38;;;;;;;4.00;2.85;;;;;;;21.02;52.16;99707.66;4346402;32;34716;-72
2022/09/12 11:33:27;;;;;;;3.87;2.78;;;;;;;20.88;53.12;99702.28;4331596;33;33247;-78
2022/09/12 11:35:56;;;;;;;3.97;2.78;;;;;;;21.52;49.17;99705.72;4346091;32;34792;-74
2022/09/12 11:38:46;;;;;;;3.97;2.90;;;;;;;21.54;48.55;99703.44;4358627;32;34831;-77
2022/09/12 11:41:19;;;;;;;3.95;2.90;;;;;;;21.42;49.07;99698.53;4341738;32;34407;-79
2022/09/12 11:43:50;;;;;;;3.75;3.00;;;;;;;21.42;49.06;99696.59;4358295;32;34196;-71
2022/09/12 11:46:35;;;;;;;6.28;3.67;;;;;;;21.23;50.11;99693.25;4360653;32;32641;-72
2022/09/12 11:49:26;;;;;;;;;;;;;;;21.31;50.41;99696.03;4348053;32;34671;-73
2022/09/12 11:52:18;;;;;;;4.30;3.25;;;;;;;21.45;50.18;99697.91;4357844;32;34367;-75
2022/09/12 11:55:02;;;;;;;4.55;3.37;;;;;;;21.44;50.50;99694.31;4348010;32;33461;-71
2022/09/12 11:57:40;;;;;;;4.20;3.50;;;;;;;21.33;51.13;99692.16;4334438;32;34521;-76
2022/09/12 12:00:43;;;;;;;4.97;3.22;;;;;;;21.25;51.38;99694.59;4348725;32;33868;-74
2022/09/12 12:03:22;;;;;;;4.55;3.33;;;;;;;21.26;51.48;99704.47;4360826;32;33604;-77
2022/09/12 12:06:20;;;;;;;4.47;3.45;;;;;;;21.25;51.68;99688.25;4336192;32;34029;-75